sensor_id;sensor_type;location;lat;lon;timestamp;P1;durP1;ratioP1;P2;durP2;ratioP2
72413;SDS011;60995;52.154;4.498;2023-03-01T00:01:40;25.67;;;15.25;;
72413;SDS011;60995;52.154;4.498;2023-03-01T00:03:57;42.13;;;23.08;;
72413;SDS011;60995;52.154;4.498;2023-03-01T00:06:15;36.72;;;20.35;;
72413;SDS011;60995;52.154;4.498;2023-03-01T00:08:32;26.02;;;15.52;;
72413;SDS011;60995;52.154;4.498;2023-03-01T00:11:00;29.33;;;16.42;;
72413;SDS011;60995;52.154;4.498;2023-03-01T00:13:31;30.23;;;16.75;;
72413;SDS011;60995;52.154;4.498;2023-03-01T00:15:48;29.27;;;16.40;;
72413;SDS011;60995;52.154;4.498;2023-03-01T00:18:05;29.15;;;16.02;;
72413;SDS011;60995;52.154;4.498;2023-03-01T00:20:22;26.27;;;16.45;;
72413;SDS011;60995;52.154;4.498;2023-03-01T00:22:38;30.70;;;17.55;;
72413;SDS011;60995;52.154;4.498;2023-03-01T00:24:54;28.00;;;17.27;;
72413;SDS011;60995;52.154;4.498;2023-03-01T00:27:11;30.88;;;17.50;;
72413;SDS011;60995;52.154;4.498;2023-03-01T00:29:27;32.88;;;18.13;;
72413;SDS011;60995;52.154;4.498;2023-03-01T00:31:43;30.60;;;17.90;;
72413;SDS011;60995;52.154;4.498;2023-03-01T00:34:00;36.28;;;18.92;;
72413;SDS011;60995;52.154;4.498;2023-03-01T00:36:20;32.05;;;19.08;;
72413;SDS011;60995;52.154;4.498;2023-03-01T00:38:37;36.25;;;19.90;;
72413;SDS011;60995;52.154;4.498;2023-03-01T00:41:02;32.47;;;19.15;;
72413;SDS011;60995;52.154;4.498;2023-03-01T00:43:21;34.70;;;20.02;;
72413;SDS011;60995;52.154;4.498;2023-03-01T00:45:37;37.17;;;20.27;;
72413;SDS011;60995;52.154;4.498;2023-03-01T00:47:57;39.95;;;21.17;;
72413;SDS011;60995;52.154;4.498;2023-03-01T00:50:13;38.88;;;20.73;;
72413;SDS011;60995;52.154;4.498;2023-03-01T00:52:30;37.38;;;19.98;;
72413;SDS011;60995;52.154;4.498;2023-03-01T00:54:46;37.25;;;21.60;;
72413;SDS011;60995;52.154;4.498;2023-03-01T00:57:03;42.17;;;21.63;;
72413;SDS011;60995;52.154;4.498;2023-03-01T00:59:19;43.58;;;22.55;;
72413;SDS011;60995;52.154;4.498;2023-03-01T01:01:35;42.15;;;22.40;;
72413;SDS011;60995;52.154;4.498;2023-03-01T01:03:59;40.83;;;22.30;;
72413;SDS011;60995;52.154;4.498;2023-03-01T01:06:33;42.22;;;22.63;;
72413;SDS011;60995;52.154;4.498;2023-03-01T01:08:55;45.63;;;23.58;;
72413;SDS011;60995;52.154;4.498;2023-03-01T01:11:12;173.90;;;30.80;;
72413;SDS011;60995;52.154;4.498;2023-03-01T01:13:30;44.05;;;25.25;;
72413;SDS011;60995;52.154;4.498;2023-03-01T01:15:46;46.95;;;25.08;;
72413;SDS011;60995;52.154;4.498;2023-03-01T01:18:03;42.67;;;24.77;;
72413;SDS011;60995;52.154;4.498;2023-03-01T01:20:19;51.05;;;26.30;;
72413;SDS011;60995;52.154;4.498;2023-03-01T01:22:35;47.67;;;26.33;;
72413;SDS011;60995;52.154;4.498;2023-03-01T01:24:51;47.72;;;25.35;;
72413;SDS011;60995;52.154;4.498;2023-03-01T01:27:08;50.75;;;27.02;;
72413;SDS011;60995;52.154;4.498;2023-03-01T01:29:24;54.72;;;28.35;;
72413;SDS011;60995;52.154;4.498;2023-03-01T01:31:41;57.47;;;29.25;;
72413;SDS011;60995;52.154;4.498;2023-03-01T01:34:00;53.25;;;27.40;;
72413;SDS011;60995;52.154;4.498;2023-03-01T01:36:18;54.83;;;28.38;;
72413;SDS011;60995;52.154;4.498;2023-03-01T01:38:35;60.15;;;31.17;;
72413;SDS011;60995;52.154;4.498;2023-03-01T01:40:54;60.38;;;30.30;;
72413;SDS011;60995;52.154;4.498;2023-03-01T01:43:45;66.97;;;31.80;;
72413;SDS011;60995;52.154;4.498;2023-03-01T01:46:05;63.55;;;30.85;;
72413;SDS011;60995;52.154;4.498;2023-03-01T01:48:48;62.10;;;30.63;;
72413;SDS011;60995;52.154;4.498;2023-03-01T01:51:13;60.55;;;29.65;;
72413;SDS011;60995;52.154;4.498;2023-03-01T01:53:36;58.72;;;30.70;;
72413;SDS011;60995;52.154;4.498;2023-03-01T01:55:56;58.72;;;29.80;;
72413;SDS011;60995;52.154;4.498;2023-03-01T01:58:18;58.95;;;30.33;;
72413;SDS011;60995;52.154;4.498;2023-03-01T02:00:37;68.40;;;33.38;;
72413;SDS011;60995;52.154;4.498;2023-03-01T02:02:56;63.95;;;32.33;;
72413;SDS011;60995;52.154;4.498;2023-03-01T02:05:22;65.03;;;31.20;;
72413;SDS011;60995;52.154;4.498;2023-03-01T02:07:52;64.00;;;31.60;;
72413;SDS011;60995;52.154;4.498;2023-03-01T02:10:09;64.70;;;31.42;;
72413;SDS011;60995;52.154;4.498;2023-03-01T02:12:26;64.07;;;31.92;;
72413;SDS011;60995;52.154;4.498;2023-03-01T02:14:43;69.78;;;34.42;;
72413;SDS011;60995;52.154;4.498;2023-03-01T02:16:59;72.82;;;34.67;;
72413;SDS011;60995;52.154;4.498;2023-03-01T02:19:28;65.32;;;32.25;;
72413;SDS011;60995;52.154;4.498;2023-03-01T02:27:06;73.78;;;34.63;;
72413;SDS011;60995;52.154;4.498;2023-03-01T02:29:23;77.18;;;36.03;;
72413;SDS011;60995;52.154;4.498;2023-03-01T02:31:40;81.30;;;38.25;;
72413;SDS011;60995;52.154;4.498;2023-03-01T02:33:57;81.35;;;37.38;;
72413;SDS011;60995;52.154;4.498;2023-03-01T02:36:17;75.88;;;36.78;;
72413;SDS011;60995;52.154;4.498;2023-03-01T02:38:47;79.40;;;36.38;;
72413;SDS011;60995;52.154;4.498;2023-03-01T02:41:09;92.53;;;39.00;;
72413;SDS011;60995;52.154;4.498;2023-03-01T02:43:31;92.47;;;40.17;;
72413;SDS011;60995;52.154;4.498;2023-03-01T02:45:50;84.55;;;38.60;;
72413;SDS011;60995;52.154;4.498;2023-03-01T02:48:08;88.95;;;39.63;;
72413;SDS011;60995;52.154;4.498;2023-03-01T02:50:34;153.82;;;41.75;;
72413;SDS011;60995;52.154;4.498;2023-03-01T02:53:38;100.20;;;41.85;;
72413;SDS011;60995;52.154;4.498;2023-03-01T02:56:02;96.15;;;40.38;;
72413;SDS011;60995;52.154;4.498;2023-03-01T02:58:19;82.47;;;39.03;;
72413;SDS011;60995;52.154;4.498;2023-03-01T03:00:36;120.13;;;42.38;;
72413;SDS011;60995;52.154;4.498;2023-03-01T03:03:01;89.57;;;39.47;;
72413;SDS011;60995;52.154;4.498;2023-03-01T03:05:18;91.95;;;41.38;;
72413;SDS011;60995;52.154;4.498;2023-03-01T03:07:41;102.13;;;41.70;;
72413;SDS011;60995;52.154;4.498;2023-03-01T03:10:02;87.40;;;40.45;;
72413;SDS011;60995;52.154;4.498;2023-03-01T03:12:21;95.57;;;41.55;;
72413;SDS011;60995;52.154;4.498;2023-03-01T03:14:38;101.13;;;43.30;;
72413;SDS011;60995;52.154;4.498;2023-03-01T03:16:54;91.07;;;40.80;;
72413;SDS011;60995;52.154;4.498;2023-03-01T03:19:10;99.70;;;41.03;;
72413;SDS011;60995;52.154;4.498;2023-03-01T03:21:27;83.75;;;39.10;;
72413;SDS011;60995;52.154;4.498;2023-03-01T03:23:43;94.68;;;41.72;;
72413;SDS011;60995;52.154;4.498;2023-03-01T03:25:59;92.22;;;39.70;;
72413;SDS011;60995;52.154;4.498;2023-03-01T03:28:16;87.80;;;39.92;;
72413;SDS011;60995;52.154;4.498;2023-03-01T03:30:33;97.28;;;43.17;;
72413;SDS011;60995;52.154;4.498;2023-03-01T03:32:49;96.60;;;42.45;;
72413;SDS011;60995;52.154;4.498;2023-03-01T03:35:09;109.28;;;46.10;;
72413;SDS011;60995;52.154;4.498;2023-03-01T03:37:25;107.70;;;45.30;;
72413;SDS011;60995;52.154;4.498;2023-03-01T03:40:00;118.57;;;45.58;;
72413;SDS011;60995;52.154;4.498;2023-03-01T03:42:17;112.00;;;43.92;;
72413;SDS011;60995;52.154;4.498;2023-03-01T03:44:33;119.53;;;46.55;;
72413;SDS011;60995;52.154;4.498;2023-03-01T03:46:49;113.07;;;45.58;;
72413;SDS011;60995;52.154;4.498;2023-03-01T03:49:05;120.45;;;44.83;;
72413;SDS011;60995;52.154;4.498;2023-03-01T03:51:22;123.22;;;47.42;;
72413;SDS011;60995;52.154;4.498;2023-03-01T03:53:38;107.40;;;46.05;;
72413;SDS011;60995;52.154;4.498;2023-03-01T03:55:55;119.43;;;47.05;;
72413;SDS011;60995;52.154;4.498;2023-03-01T03:58:11;121.22;;;48.13;;
72413;SDS011;60995;52.154;4.498;2023-03-01T04:00:28;112.57;;;45.08;;
72413;SDS011;60995;52.154;4.498;2023-03-01T04:02:45;182.80;;;49.35;;
72413;SDS011;60995;52.154;4.498;2023-03-01T04:05:03;113.50;;;47.28;;
72413;SDS011;60995;52.154;4.498;2023-03-01T04:07:19;112.93;;;46.17;;
72413;SDS011;60995;52.154;4.498;2023-03-01T04:09:36;100.88;;;42.20;;
72413;SDS011;60995;52.154;4.498;2023-03-01T04:11:52;433.65;;;59.70;;
72413;SDS011;60995;52.154;4.498;2023-03-01T04:14:08;98.40;;;42.60;;
72413;SDS011;60995;52.154;4.498;2023-03-01T04:16:25;120.90;;;46.65;;
72413;SDS011;60995;52.154;4.498;2023-03-01T04:18:42;113.85;;;46.33;;
72413;SDS011;60995;52.154;4.498;2023-03-01T04:20:58;120.65;;;46.83;;
72413;SDS011;60995;52.154;4.498;2023-03-01T04:23:16;122.78;;;45.45;;
72413;SDS011;60995;52.154;4.498;2023-03-01T04:25:39;115.47;;;45.13;;
72413;SDS011;60995;52.154;4.498;2023-03-01T04:28:09;111.95;;;43.03;;
72413;SDS011;60995;52.154;4.498;2023-03-01T04:30:26;107.97;;;43.42;;
72413;SDS011;60995;52.154;4.498;2023-03-01T04:32:42;134.25;;;45.28;;
72413;SDS011;60995;52.154;4.498;2023-03-01T04:34:59;113.05;;;44.28;;
72413;SDS011;60995;52.154;4.498;2023-03-01T04:37:16;106.68;;;40.33;;
72413;SDS011;60995;52.154;4.498;2023-03-01T04:39:32;160.15;;;47.50;;
72413;SDS011;60995;52.154;4.498;2023-03-01T04:41:48;146.50;;;46.40;;
72413;SDS011;60995;52.154;4.498;2023-03-01T04:44:05;166.13;;;47.53;;
72413;SDS011;60995;52.154;4.498;2023-03-01T04:46:24;200.18;;;49.05;;
72413;SDS011;60995;52.154;4.498;2023-03-01T04:48:41;172.43;;;48.63;;
72413;SDS011;60995;52.154;4.498;2023-03-01T04:51:00;183.88;;;46.33;;
72413;SDS011;60995;52.154;4.498;2023-03-01T04:53:16;241.52;;;53.35;;
72413;SDS011;60995;52.154;4.498;2023-03-01T04:55:34;135.45;;;46.08;;
72413;SDS011;60995;52.154;4.498;2023-03-01T04:57:50;176.20;;;49.05;;
72413;SDS011;60995;52.154;4.498;2023-03-01T05:00:08;226.73;;;50.30;;
72413;SDS011;60995;52.154;4.498;2023-03-01T05:02:36;221.45;;;50.22;;
72413;SDS011;60995;52.154;4.498;2023-03-01T05:04:52;165.60;;;46.60;;
72413;SDS011;60995;52.154;4.498;2023-03-01T05:07:13;183.73;;;46.63;;
72413;SDS011;60995;52.154;4.498;2023-03-01T05:09:34;233.60;;;49.30;;
72413;SDS011;60995;52.154;4.498;2023-03-01T05:11:52;331.35;;;56.33;;
72413;SDS011;60995;52.154;4.498;2023-03-01T05:14:08;204.95;;;51.53;;
72413;SDS011;60995;52.154;4.498;2023-03-01T05:16:26;138.13;;;48.45;;
72413;SDS011;60995;52.154;4.498;2023-03-01T05:18:42;196.40;;;53.50;;
72413;SDS011;60995;52.154;4.498;2023-03-01T05:21:04;157.93;;;49.75;;
72413;SDS011;60995;52.154;4.498;2023-03-01T05:23:22;163.83;;;48.93;;
72413;SDS011;60995;52.154;4.498;2023-03-01T05:25:38;219.48;;;56.85;;
72413;SDS011;60995;52.154;4.498;2023-03-01T05:27:55;177.18;;;53.25;;
72413;SDS011;60995;52.154;4.498;2023-03-01T05:30:12;173.15;;;52.58;;
72413;SDS011;60995;52.154;4.498;2023-03-01T05:32:29;206.52;;;54.85;;
72413;SDS011;60995;52.154;4.498;2023-03-01T05:34:52;180.18;;;53.60;;
72413;SDS011;60995;52.154;4.498;2023-03-01T05:37:10;171.20;;;53.03;;
72413;SDS011;60995;52.154;4.498;2023-03-01T05:39:28;189.40;;;54.42;;
72413;SDS011;60995;52.154;4.498;2023-03-01T05:41:45;173.10;;;53.08;;
72413;SDS011;60995;52.154;4.498;2023-03-01T05:44:02;178.55;;;51.55;;
72413;SDS011;60995;52.154;4.498;2023-03-01T05:46:20;171.65;;;51.63;;
72413;SDS011;60995;52.154;4.498;2023-03-01T05:48:39;187.45;;;55.28;;
72413;SDS011;60995;52.154;4.498;2023-03-01T05:50:57;198.32;;;55.78;;
72413;SDS011;60995;52.154;4.498;2023-03-01T05:53:16;178.65;;;54.13;;
72413;SDS011;60995;52.154;4.498;2023-03-01T05:55:37;160.65;;;51.95;;
72413;SDS011;60995;52.154;4.498;2023-03-01T05:57:53;180.73;;;55.80;;
72413;SDS011;60995;52.154;4.498;2023-03-01T06:00:10;211.10;;;57.70;;
72413;SDS011;60995;52.154;4.498;2023-03-01T06:02:29;159.25;;;53.13;;
72413;SDS011;60995;52.154;4.498;2023-03-01T06:04:45;153.43;;;54.65;;
72413;SDS011;60995;52.154;4.498;2023-03-01T06:07:01;150.13;;;53.50;;
72413;SDS011;60995;52.154;4.498;2023-03-01T06:09:18;151.70;;;53.63;;
72413;SDS011;60995;52.154;4.498;2023-03-01T06:11:35;137.35;;;51.30;;
72413;SDS011;60995;52.154;4.498;2023-03-01T06:13:52;144.95;;;53.25;;
72413;SDS011;60995;52.154;4.498;2023-03-01T06:16:08;146.50;;;55.00;;
72413;SDS011;60995;52.154;4.498;2023-03-01T06:18:25;140.02;;;54.92;;
72413;SDS011;60995;52.154;4.498;2023-03-01T06:20:41;118.30;;;49.17;;
72413;SDS011;60995;52.154;4.498;2023-03-01T06:22:57;124.10;;;48.67;;
72413;SDS011;60995;52.154;4.498;2023-03-01T06:25:16;122.90;;;48.65;;
72413;SDS011;60995;52.154;4.498;2023-03-01T06:27:36;125.78;;;49.38;;
72413;SDS011;60995;52.154;4.498;2023-03-01T06:29:52;113.78;;;48.45;;
72413;SDS011;60995;52.154;4.498;2023-03-01T06:32:09;96.60;;;44.28;;
72413;SDS011;60995;52.154;4.498;2023-03-01T06:34:25;103.85;;;46.80;;
72413;SDS011;60995;52.154;4.498;2023-03-01T06:36:41;101.53;;;45.33;;
72413;SDS011;60995;52.154;4.498;2023-03-01T06:38:58;93.10;;;44.85;;
72413;SDS011;60995;52.154;4.498;2023-03-01T06:41:14;1851.93;;;170.55;;
72413;SDS011;60995;52.154;4.498;2023-03-01T06:43:30;95.78;;;44.95;;
72413;SDS011;60995;52.154;4.498;2023-03-01T06:45:46;90.03;;;41.33;;
72413;SDS011;60995;52.154;4.498;2023-03-01T06:48:06;82.35;;;39.40;;
72413;SDS011;60995;52.154;4.498;2023-03-01T06:50:23;75.07;;;38.20;;
72413;SDS011;60995;52.154;4.498;2023-03-01T06:52:42;63.75;;;34.40;;
72413;SDS011;60995;52.154;4.498;2023-03-01T06:55:02;62.80;;;34.95;;
72413;SDS011;60995;52.154;4.498;2023-03-01T06:57:19;54.50;;;31.02;;
72413;SDS011;60995;52.154;4.498;2023-03-01T06:59:36;49.80;;;29.25;;
72413;SDS011;60995;52.154;4.498;2023-03-01T07:01:52;43.72;;;25.88;;
72413;SDS011;60995;52.154;4.498;2023-03-01T07:04:08;42.28;;;26.02;;
72413;SDS011;60995;52.154;4.498;2023-03-01T07:06:25;42.17;;;24.70;;
72413;SDS011;60995;52.154;4.498;2023-03-01T07:08:41;44.20;;;24.10;;
72413;SDS011;60995;52.154;4.498;2023-03-01T07:10:58;37.08;;;23.40;;
72413;SDS011;60995;52.154;4.498;2023-03-01T07:13:15;35.08;;;21.40;;
72413;SDS011;60995;52.154;4.498;2023-03-01T07:15:31;32.67;;;21.48;;
72413;SDS011;60995;52.154;4.498;2023-03-01T07:17:48;34.67;;;21.80;;
72413;SDS011;60995;52.154;4.498;2023-03-01T07:20:06;35.55;;;23.20;;
72413;SDS011;60995;52.154;4.498;2023-03-01T07:22:23;35.05;;;22.27;;
72413;SDS011;60995;52.154;4.498;2023-03-01T07:24:40;39.10;;;23.83;;
72413;SDS011;60995;52.154;4.498;2023-03-01T07:26:57;38.78;;;25.17;;
72413;SDS011;60995;52.154;4.498;2023-03-01T07:29:13;42.42;;;25.52;;
72413;SDS011;60995;52.154;4.498;2023-03-01T07:31:30;59.42;;;32.58;;
72413;SDS011;60995;52.154;4.498;2023-03-01T07:33:46;54.90;;;32.13;;
72413;SDS011;60995;52.154;4.498;2023-03-01T07:36:03;40.55;;;25.58;;
72413;SDS011;60995;52.154;4.498;2023-03-01T07:38:21;43.00;;;25.48;;
72413;SDS011;60995;52.154;4.498;2023-03-01T07:40:37;43.20;;;25.80;;
72413;SDS011;60995;52.154;4.498;2023-03-01T07:42:57;41.88;;;24.73;;
72413;SDS011;60995;52.154;4.498;2023-03-01T07:45:14;41.75;;;25.25;;
72413;SDS011;60995;52.154;4.498;2023-03-01T07:47:31;40.20;;;25.42;;
72413;SDS011;60995;52.154;4.498;2023-03-01T07:49:47;41.70;;;25.63;;
72413;SDS011;60995;52.154;4.498;2023-03-01T07:52:04;43.38;;;26.77;;
72413;SDS011;60995;52.154;4.498;2023-03-01T07:54:20;41.78;;;26.30;;
72413;SDS011;60995;52.154;4.498;2023-03-01T07:56:36;44.90;;;26.80;;
72413;SDS011;60995;52.154;4.498;2023-03-01T07:58:53;41.63;;;26.50;;
72413;SDS011;60995;52.154;4.498;2023-03-01T08:01:10;1059.90;;;83.05;;
72413;SDS011;60995;52.154;4.498;2023-03-01T08:03:31;45.97;;;27.95;;
72413;SDS011;60995;52.154;4.498;2023-03-01T08:05:48;40.08;;;25.88;;
72413;SDS011;60995;52.154;4.498;2023-03-01T08:08:04;44.03;;;25.75;;
72413;SDS011;60995;52.154;4.498;2023-03-01T08:10:21;40.78;;;24.35;;
72413;SDS011;60995;52.154;4.498;2023-03-01T08:12:37;36.38;;;24.30;;
72413;SDS011;60995;52.154;4.498;2023-03-01T08:14:54;30.77;;;21.08;;
72413;SDS011;60995;52.154;4.498;2023-03-01T08:17:12;35.55;;;22.25;;
72413;SDS011;60995;52.154;4.498;2023-03-01T08:19:30;29.45;;;21.23;;
72413;SDS011;60995;52.154;4.498;2023-03-01T08:21:46;31.15;;;21.98;;
72413;SDS011;60995;52.154;4.498;2023-03-01T08:24:03;33.83;;;24.77;;
72413;SDS011;60995;52.154;4.498;2023-03-01T08:26:22;36.38;;;27.63;;
72413;SDS011;60995;52.154;4.498;2023-03-01T08:28:38;36.58;;;26.23;;
72413;SDS011;60995;52.154;4.498;2023-03-01T08:30:55;37.50;;;27.65;;
72413;SDS011;60995;52.154;4.498;2023-03-01T08:33:11;39.55;;;28.40;;
72413;SDS011;60995;52.154;4.498;2023-03-01T08:35:27;35.50;;;24.35;;
72413;SDS011;60995;52.154;4.498;2023-03-01T08:37:43;37.72;;;27.13;;
72413;SDS011;60995;52.154;4.498;2023-03-01T08:40:00;38.08;;;26.13;;
72413;SDS011;60995;52.154;4.498;2023-03-01T08:42:19;33.33;;;23.58;;
72413;SDS011;60995;52.154;4.498;2023-03-01T08:44:36;33.28;;;24.00;;
72413;SDS011;60995;52.154;4.498;2023-03-01T08:46:53;35.03;;;23.80;;
72413;SDS011;60995;52.154;4.498;2023-03-01T08:49:12;33.80;;;23.45;;
72413;SDS011;60995;52.154;4.498;2023-03-01T08:51:34;26.65;;;18.50;;
72413;SDS011;60995;52.154;4.498;2023-03-01T08:53:54;29.10;;;20.38;;
72413;SDS011;60995;52.154;4.498;2023-03-01T08:56:11;27.27;;;18.33;;
72413;SDS011;60995;52.154;4.498;2023-03-01T08:58:28;27.33;;;20.08;;
72413;SDS011;60995;52.154;4.498;2023-03-01T09:00:45;26.30;;;18.80;;
72413;SDS011;60995;52.154;4.498;2023-03-01T09:03:01;26.80;;;18.35;;
72413;SDS011;60995;52.154;4.498;2023-03-01T09:05:18;27.23;;;18.05;;
72413;SDS011;60995;52.154;4.498;2023-03-01T09:07:34;24.52;;;18.52;;
72413;SDS011;60995;52.154;4.498;2023-03-01T09:09:50;26.15;;;18.70;;
72413;SDS011;60995;52.154;4.498;2023-03-01T09:12:09;24.42;;;17.33;;
72413;SDS011;60995;52.154;4.498;2023-03-01T09:14:25;23.38;;;16.45;;
72413;SDS011;60995;52.154;4.498;2023-03-01T09:16:42;22.35;;;18.20;;
72413;SDS011;60995;52.154;4.498;2023-03-01T09:18:58;24.77;;;18.15;;
72413;SDS011;60995;52.154;4.498;2023-03-01T09:21:15;24.65;;;17.73;;
72413;SDS011;60995;52.154;4.498;2023-03-01T09:23:37;44.28;;;18.85;;
72413;SDS011;60995;52.154;4.498;2023-03-01T09:25:57;25.00;;;17.33;;
72413;SDS011;60995;52.154;4.498;2023-03-01T09:28:13;26.83;;;17.70;;
72413;SDS011;60995;52.154;4.498;2023-03-01T09:30:29;23.77;;;17.45;;
72413;SDS011;60995;52.154;4.498;2023-03-01T09:32:45;85.53;;;20.75;;
72413;SDS011;60995;52.154;4.498;2023-03-01T09:35:02;221.07;;;27.08;;
72413;SDS011;60995;52.154;4.498;2023-03-01T09:37:22;27.98;;;18.73;;
72413;SDS011;60995;52.154;4.498;2023-03-01T09:39:38;25.65;;;19.05;;
72413;SDS011;60995;52.154;4.498;2023-03-01T09:46:59;26.55;;;19.08;;
72413;SDS011;60995;52.154;4.498;2023-03-01T09:49:18;23.33;;;17.08;;
72413;SDS011;60995;52.154;4.498;2023-03-01T09:51:38;22.63;;;17.83;;
72413;SDS011;60995;52.154;4.498;2023-03-01T09:53:55;23.63;;;18.65;;
72413;SDS011;60995;52.154;4.498;2023-03-01T09:56:33;21.08;;;17.15;;
72413;SDS011;60995;52.154;4.498;2023-03-01T10:04:55;23.80;;;17.92;;
72413;SDS011;60995;52.154;4.498;2023-03-01T10:11:14;21.85;;;15.13;;
72413;SDS011;60995;52.154;4.498;2023-03-01T10:13:19;23.27;;;17.67;;
72413;SDS011;60995;52.154;4.498;2023-03-01T10:15:42;24.77;;;18.23;;
72413;SDS011;60995;52.154;4.498;2023-03-01T10:18:12;24.10;;;17.13;;
72413;SDS011;60995;52.154;4.498;2023-03-01T10:20:43;22.95;;;18.15;;
72413;SDS011;60995;52.154;4.498;2023-03-01T10:23:08;21.77;;;17.23;;
72413;SDS011;60995;52.154;4.498;2023-03-01T10:27:54;26.00;;;19.63;;
72413;SDS011;60995;52.154;4.498;2023-03-01T10:30:34;23.92;;;17.42;;
72413;SDS011;60995;52.154;4.498;2023-03-01T10:32:57;23.63;;;17.95;;
72413;SDS011;60995;52.154;4.498;2023-03-01T10:35:15;26.00;;;18.90;;
72413;SDS011;60995;52.154;4.498;2023-03-01T10:40:23;23.55;;;17.02;;
72413;SDS011;60995;52.154;4.498;2023-03-01T10:42:49;22.80;;;15.73;;
72413;SDS011;60995;52.154;4.498;2023-03-01T10:45:17;26.10;;;18.13;;
72413;SDS011;60995;52.154;4.498;2023-03-01T10:47:45;29.13;;;18.88;;
72413;SDS011;60995;52.154;4.498;2023-03-01T10:50:03;27.38;;;20.33;;
72413;SDS011;60995;52.154;4.498;2023-03-01T10:52:34;32.17;;;21.20;;
72413;SDS011;60995;52.154;4.498;2023-03-01T10:54:55;23.67;;;17.67;;
72413;SDS011;60995;52.154;4.498;2023-03-01T10:57:25;24.98;;;18.52;;
72413;SDS011;60995;52.154;4.498;2023-03-01T10:59:51;22.92;;;16.35;;
72413;SDS011;60995;52.154;4.498;2023-03-01T11:02:34;22.70;;;16.25;;
72413;SDS011;60995;52.154;4.498;2023-03-01T11:07:30;29.38;;;19.50;;
72413;SDS011;60995;52.154;4.498;2023-03-01T11:10:15;27.38;;;18.45;;
72413;SDS011;60995;52.154;4.498;2023-03-01T11:12:43;26.55;;;18.52;;
72413;SDS011;60995;52.154;4.498;2023-03-01T11:14:59;27.13;;;19.02;;
72413;SDS011;60995;52.154;4.498;2023-03-01T11:17:27;29.75;;;18.45;;
72413;SDS011;60995;52.154;4.498;2023-03-01T11:19:59;25.70;;;17.83;;
72413;SDS011;60995;52.154;4.498;2023-03-01T11:22:53;26.25;;;17.08;;
72413;SDS011;60995;52.154;4.498;2023-03-01T11:25:13;26.55;;;16.58;;
72413;SDS011;60995;52.154;4.498;2023-03-01T11:27:31;26.80;;;17.65;;
72413;SDS011;60995;52.154;4.498;2023-03-01T11:30:00;23.83;;;16.33;;
72413;SDS011;60995;52.154;4.498;2023-03-01T11:32:24;26.17;;;16.63;;
72413;SDS011;60995;52.154;4.498;2023-03-01T11:37:44;20.98;;;14.15;;
72413;SDS011;60995;52.154;4.498;2023-03-01T11:40:39;23.50;;;15.88;;
72413;SDS011;60995;52.154;4.498;2023-03-01T11:45:56;19.38;;;12.80;;
72413;SDS011;60995;52.154;4.498;2023-03-01T11:56:57;15.13;;;9.25;;
72413;SDS011;60995;52.154;4.498;2023-03-01T12:02:19;13.85;;;7.75;;
72413;SDS011;60995;52.154;4.498;2023-03-01T12:10:29;13.50;;;7.40;;
72413;SDS011;60995;52.154;4.498;2023-03-01T12:13:34;15.85;;;8.30;;
72413;SDS011;60995;52.154;4.498;2023-03-01T12:16:15;16.23;;;9.60;;
72413;SDS011;60995;52.154;4.498;2023-03-01T12:22:38;18.35;;;9.85;;
72413;SDS011;60995;52.154;4.498;2023-03-01T12:36:09;20.52;;;11.80;;
72413;SDS011;60995;52.154;4.498;2023-03-01T12:47:14;19.13;;;11.30;;
72413;SDS011;60995;52.154;4.498;2023-03-01T12:50:03;19.23;;;11.02;;
72413;SDS011;60995;52.154;4.498;2023-03-01T12:52:37;22.23;;;11.23;;
72413;SDS011;60995;52.154;4.498;2023-03-01T12:55:00;20.02;;;10.65;;
72413;SDS011;60995;52.154;4.498;2023-03-01T13:00:39;21.52;;;11.25;;
72413;SDS011;60995;52.154;4.498;2023-03-01T13:05:44;17.75;;;9.90;;
72413;SDS011;60995;52.154;4.498;2023-03-01T13:08:42;20.73;;;11.32;;
72413;SDS011;60995;52.154;4.498;2023-03-01T13:11:15;23.58;;;10.93;;
72413;SDS011;60995;52.154;4.498;2023-03-01T13:13:36;20.08;;;10.85;;
72413;SDS011;60995;52.154;4.498;2023-03-01T13:15:53;19.48;;;10.85;;
72413;SDS011;60995;52.154;4.498;2023-03-01T13:23:04;19.85;;;11.73;;
72413;SDS011;60995;52.154;4.498;2023-03-01T13:25:24;18.05;;;10.25;;
72413;SDS011;60995;52.154;4.498;2023-03-01T13:27:40;16.80;;;10.23;;
72413;SDS011;60995;52.154;4.498;2023-03-01T13:29:59;19.95;;;10.40;;
72413;SDS011;60995;52.154;4.498;2023-03-01T13:35:03;19.27;;;10.48;;
72413;SDS011;60995;52.154;4.498;2023-03-01T13:37:31;23.30;;;11.77;;
72413;SDS011;60995;52.154;4.498;2023-03-01T13:39:53;18.90;;;9.82;;
72413;SDS011;60995;52.154;4.498;2023-03-01T13:44:58;16.88;;;9.52;;
72413;SDS011;60995;52.154;4.498;2023-03-01T13:47:16;17.83;;;10.23;;
72413;SDS011;60995;52.154;4.498;2023-03-01T13:52:06;22.00;;;11.15;;
72413;SDS011;60995;52.154;4.498;2023-03-01T13:54:36;19.30;;;10.18;;
72413;SDS011;60995;52.154;4.498;2023-03-01T13:56:54;20.55;;;9.98;;
72413;SDS011;60995;52.154;4.498;2023-03-01T13:59:14;16.48;;;9.63;;
72413;SDS011;60995;52.154;4.498;2023-03-01T14:01:35;15.98;;;9.65;;
72413;SDS011;60995;52.154;4.498;2023-03-01T14:03:52;17.10;;;9.52;;
72413;SDS011;60995;52.154;4.498;2023-03-01T14:06:12;18.15;;;10.02;;
72413;SDS011;60995;52.154;4.498;2023-03-01T14:08:36;20.05;;;10.30;;
72413;SDS011;60995;52.154;4.498;2023-03-01T14:10:54;20.88;;;10.10;;
72413;SDS011;60995;52.154;4.498;2023-03-01T14:21:43;18.15;;;9.90;;
72413;SDS011;60995;52.154;4.498;2023-03-01T14:23:59;17.90;;;9.27;;
72413;SDS011;60995;52.154;4.498;2023-03-01T14:26:22;15.02;;;8.27;;
72413;SDS011;60995;52.154;4.498;2023-03-01T14:28:39;14.95;;;7.25;;
72413;SDS011;60995;52.154;4.498;2023-03-01T14:30:58;17.02;;;8.05;;
72413;SDS011;60995;52.154;4.498;2023-03-01T14:35:56;17.20;;;8.48;;
72413;SDS011;60995;52.154;4.498;2023-03-01T14:38:22;18.63;;;8.70;;
72413;SDS011;60995;52.154;4.498;2023-03-01T14:40:51;13.23;;;6.80;;
72413;SDS011;60995;52.154;4.498;2023-03-01T14:43:16;12.32;;;6.22;;
72413;SDS011;60995;52.154;4.498;2023-03-01T14:45:39;15.20;;;7.90;;
72413;SDS011;60995;52.154;4.498;2023-03-01T14:48:05;15.10;;;7.65;;
72413;SDS011;60995;52.154;4.498;2023-03-01T14:50:27;16.17;;;9.10;;
72413;SDS011;60995;52.154;4.498;2023-03-01T14:52:47;17.90;;;8.77;;
72413;SDS011;60995;52.154;4.498;2023-03-01T14:55:20;15.70;;;8.23;;
72413;SDS011;60995;52.154;4.498;2023-03-01T14:57:47;15.35;;;8.60;;
72413;SDS011;60995;52.154;4.498;2023-03-01T15:00:06;14.00;;;7.78;;
72413;SDS011;60995;52.154;4.498;2023-03-01T15:02:25;15.40;;;8.07;;
72413;SDS011;60995;52.154;4.498;2023-03-01T15:04:45;14.18;;;8.00;;
72413;SDS011;60995;52.154;4.498;2023-03-01T15:07:06;16.27;;;8.55;;
72413;SDS011;60995;52.154;4.498;2023-03-01T15:09:25;14.63;;;8.20;;
72413;SDS011;60995;52.154;4.498;2023-03-01T15:11:41;18.15;;;8.70;;
72413;SDS011;60995;52.154;4.498;2023-03-01T15:13:59;17.65;;;8.63;;
72413;SDS011;60995;52.154;4.498;2023-03-01T15:16:19;14.45;;;7.15;;
72413;SDS011;60995;52.154;4.498;2023-03-01T15:18:45;17.48;;;8.38;;
72413;SDS011;60995;52.154;4.498;2023-03-01T15:21:15;16.27;;;8.40;;
72413;SDS011;60995;52.154;4.498;2023-03-01T15:23:40;14.88;;;6.53;;